Time;durP1;ratioP1;P1;durP2;ratioP2;P2;SDS_P1;SDS_P2;PMS_P1;PMS_P2;Temp;Humidity;BMP_temperature;BMP_pressure;BME280_temperature;BME280_humidity;BME280_pressure;Samples;Min_cycle;Max_cycle;Signal;HPM_P1;HPM_P2
2022/03/31 00:00:42;;;;;;;22.33;15.07;;;9.20;99.90;;;;;;4980985;28;20224;-68
2022/03/31 00:03:11;;;;;;;29.97;16.17;;;9.10;99.90;;;;;;4974400;28;20212;-68
2022/03/31 00:05:37;;;;;;;20.93;13.43;;;9.10;99.90;;;;;;4972907;28;20195;-68
2022/03/31 00:08:14;;;;;;;25.47;14.83;;;9.10;99.90;;;;;;4974051;28;20193;-68
2022/03/31 00:10:41;;;;;;;26.47;15.70;;;9.20;99.90;;;;;;4985441;28;20196;-68
2022/03/31 00:13:19;;;;;;;21.87;15.17;;;9.10;99.90;;;;;;4974296;28;20341;-68
2022/03/31 00:15:45;;;;;;;26.57;14.83;;;9.10;99.90;;;;;;4973127;28;20198;-68
2022/03/31 00:18:12;;;;;;;21.90;13.43;;;9.00;99.90;;;;;;4974006;28;20223;-68
2022/03/31 00:20:38;;;;;;;21.07;14.80;;;8.90;99.90;;;;;;4984722;28;20310;-68
2022/03/31 00:23:05;;;;;;;19.00;12.97;;;8.90;99.90;;;;;;4977663;28;20295;-68
2022/03/31 00:25:31;;;;;;;29.43;15.63;;;8.90;99.90;;;;;;4974072;28;20177;-68
2022/03/31 00:27:57;;;;;;;20.37;12.70;;;8.80;99.90;;;;;;4973823;28;20196;-68
2022/03/31 00:30:24;;;;;;;19.90;13.70;;;8.70;99.90;;;;;;4972793;28;20546;-69
2022/03/31 00:32:50;;;;;;;23.37;14.63;;;8.70;99.90;;;;;;4990701;28;20242;-68
2022/03/31 00:35:16;;;;;;;19.27;13.37;;;8.70;99.90;;;;;;4990265;28;20204;-68
2022/03/31 00:37:44;;;;;;;17.50;12.90;;;8.60;99.90;;;;;;4981484;28;20270;-68
2022/03/31 00:40:21;;;;;;;20.90;13.93;;;8.70;99.90;;;;;;4991441;28;20220;-68
2022/03/31 00:43:05;;;;;;;22.90;12.73;;;8.70;99.90;;;;;;4973057;28;20623;-68
2022/03/31 00:45:34;;;;;;;20.00;11.43;;;8.70;99.90;;;;;;4972576;28;20192;-68
2022/03/31 00:48:01;;;;;;;22.37;12.50;;;8.70;99.90;;;;;;4974364;28;20279;-69
2022/03/31 00:50:27;;;;;;;20.50;13.53;;;8.70;99.90;;;;;;4973892;28;20192;-68
2022/03/31 00:52:54;;;;;;;19.67;12.13;;;8.80;99.90;;;;;;4972789;28;20193;-68
2022/03/31 00:55:21;;;;;;;21.37;13.73;;;8.90;99.90;;;;;;4959566;28;20250;-68
2022/03/31 00:57:53;;;;;;;22.03;13.13;;;9.00;99.90;;;;;;4979478;28;20192;-68
2022/03/31 01:00:18;;;;;;;21.13;12.27;;;9.00;99.90;;;;;;4972826;28;20220;-68
2022/03/31 01:02:45;;;;;;;16.87;11.43;;;8.90;99.90;;;;;;4972919;28;20188;-68
2022/03/31 01:05:14;;;;;;;20.20;12.53;;;8.90;99.90;;;;;;4956711;28;20252;-68
2022/03/31 01:07:40;;;;;;;22.93;12.77;;;8.80;99.90;;;;;;4956920;28;20651;-69
2022/03/31 01:10:08;;;;;;;20.47;12.27;;;8.70;99.90;;;;;;4973786;28;20188;-68
2022/03/31 01:12:34;;;;;;;24.57;13.57;;;8.70;99.90;;;;;;4972677;28;20212;-68
2022/03/31 01:15:15;;;;;;;14.20;10.90;;;8.70;99.90;;;;;;4972666;28;20267;-68
2022/03/31 01:17:43;;;;;;;22.03;11.17;;;8.80;99.90;;;;;;4983180;28;20191;-68
2022/03/31 01:20:19;;;;;;;19.30;12.53;;;8.90;99.90;;;;;;4978804;28;20213;-68
2022/03/31 01:22:45;;;;;;;19.47;13.00;;;8.90;99.90;;;;;;4979760;28;20188;-68
2022/03/31 01:25:11;;;;;;;18.90;11.83;;;8.90;99.90;;;;;;4973958;28;20184;-68
2022/03/31 01:27:40;;;;;;;22.03;12.77;;;8.80;99.90;;;;;;4972283;28;20189;-68
2022/03/31 01:30:11;;;;;;;18.90;11.40;;;8.80;99.90;;;;;;4973921;28;20189;-68
2022/03/31 01:32:36;;;;;;;19.80;12.57;;;8.70;99.90;;;;;;4974128;28;20275;-68
2022/03/31 01:35:03;;;;;;;18.50;10.67;;;8.60;99.90;;;;;;4973467;28;20279;-69
2022/03/31 01:37:29;;;;;;;20.47;11.37;;;8.60;99.90;;;;;;4955601;28;20213;-68
2022/03/31 01:39:55;;;;;;;15.37;10.20;;;8.60;99.90;;;;;;4985911;28;20268;-68
2022/03/31 01:42:22;;;;;;;12.07;9.90;;;8.70;99.90;;;;;;4959690;28;20184;-68
2022/03/31 01:44:49;;;;;;;18.40;10.63;;;8.60;99.90;;;;;;4984692;28;20189;-68
2022/03/31 01:47:15;;;;;;;16.03;10.00;;;8.60;99.90;;;;;;4977292;28;20630;-68
2022/03/31 01:49:40;;;;;;;16.60;9.73;;;8.60;99.90;;;;;;4975513;28;20189;-68
2022/03/31 01:52:09;;;;;;;13.53;9.77;;;8.60;99.90;;;;;;4975334;28;20670;-68
2022/03/31 01:54:35;;;;;;;15.73;10.00;;;8.70;99.90;;;;;;4976531;28;20235;-68
2022/03/31 01:57:01;;;;;;;14.77;9.60;;;8.50;99.90;;;;;;4976919;28;20188;-68
2022/03/31 01:59:37;;;;;;;13.93;9.27;;;8.40;99.90;;;;;;4976618;28;20193;-68
2022/03/31 02:02:04;;;;;;;12.07;9.70;;;8.30;99.90;;;;;;4975161;28;20234;-69
2022/03/31 02:04:30;;;;;;;14.93;10.03;;;8.30;99.90;;;;;;4994896;28;20176;-68
2022/03/31 02:06:56;;;;;;;14.67;10.77;;;8.20;99.90;;;;;;4977056;28;20550;-68
2022/03/31 02:09:23;;;;;;;17.43;10.33;;;8.10;99.90;;;;;;4975299;28;20239;-68
2022/03/31 02:11:48;;;;;;;11.33;7.80;;;8.10;99.90;;;;;;4975645;28;20201;-68
2022/03/31 02:14:14;;;;;;;13.33;7.53;;;8.00;99.90;;;;;;4959185;28;20657;-68
2022/03/31 02:16:40;;;;;;;14.03;9.17;;;8.00;99.90;;;;;;4976461;28;20549;-68
2022/03/31 02:19:05;;;;;;;15.63;9.10;;;8.00;99.90;;;;;;4959106;28;20243;-69
2022/03/31 02:21:31;;;;;;;11.47;7.63;;;8.10;99.90;;;;;;4976488;28;20228;-68
2022/03/31 02:23:57;;;;;;;12.50;7.53;;;8.10;99.90;;;;;;4995873;28;20184;-68
2022/03/31 02:26:22;;;;;;;11.93;7.50;;;8.20;99.90;;;;;;4959409;28;20189;-67
2022/03/31 02:28:48;;;;;;;14.07;7.63;;;8.40;99.90;;;;;;4975510;28;20242;-68
2022/03/31 02:31:13;;;;;;;13.13;7.50;;;8.20;99.90;;;;;;4985683;28;20286;-68
2022/03/31 02:33:39;;;;;;;11.23;7.30;;;8.40;99.90;;;;;;4994755;28;20267;-68
2022/03/31 02:36:07;;;;;;;11.50;7.83;;;8.10;99.90;;;;;;4986979;28;20205;-68
2022/03/31 02:38:34;;;;;;;15.03;8.10;;;8.10;99.90;;;;;;4976098;28;20192;-68
2022/03/31 02:41:00;;;;;;;10.33;7.00;;;7.90;99.90;;;;;;4976087;28;20216;-68
2022/03/31 02:43:26;;;;;;;11.87;8.03;;;8.00;99.90;;;;;;4979525;28;20272;-67
2022/03/31 02:45:52;;;;;;;11.20;7.97;;;7.90;99.90;;;;;;4988169;28;20207;-68
2022/03/31 02:48:18;;;;;;;12.63;8.57;;;7.80;99.90;;;;;;4979365;28;20193;-67
2022/03/31 02:50:44;;;;;;;14.83;8.37;;;7.80;99.90;;;;;;4965992;28;20283;-68
2022/03/31 02:55:53;;;;;;;15.30;9.40;;;7.70;99.90;;;;;;4985840;28;20290;-68
2022/03/31 02:58:19;;;;;;;10.73;7.80;;;7.70;99.90;;;;;;4976053;28;20219;-68
2022/03/31 03:00:45;;;;;;;16.07;9.60;;;7.60;99.90;;;;;;4975983;28;20708;-67
2022/03/31 03:03:11;;;;;;;14.73;9.50;;;7.70;99.90;;;;;;4958425;28;20655;-67
2022/03/31 03:05:37;;;;;;;15.17;9.80;;;7.70;99.90;;;;;;4974304;28;20211;-67
2022/03/31 03:08:03;;;;;;;12.60;8.30;;;7.70;99.90;;;;;;4984036;28;20184;-67
2022/03/31 03:10:30;;;;;;;14.00;9.57;;;7.70;99.90;;;;;;4975642;28;20228;-67
2022/03/31 03:12:57;;;;;;;13.20;9.00;;;7.60;99.90;;;;;;4975386;28;20235;-67
2022/03/31 03:15:25;;;;;;;14.47;8.20;;;7.60;99.90;;;;;;4973740;28;20542;-67
2022/03/31 03:17:51;;;;;;;13.63;8.97;;;7.70;99.90;;;;;;4975547;28;20256;-67
2022/03/31 03:20:17;;;;;;;10.90;6.77;;;7.60;99.90;;;;;;4982453;28;20677;-67
2022/03/31 03:22:47;;;;;;;11.10;7.87;;;7.60;99.90;;;;;;4974035;28;20236;-67
2022/03/31 03:25:15;;;;;;;13.40;7.57;;;7.70;99.90;;;;;;4975510;28;20279;-66
2022/03/31 03:27:42;;;;;;;12.73;7.63;;;7.60;99.90;;;;;;4973833;28;20184;-67
2022/03/31 03:30:08;;;;;;;10.93;6.50;;;7.50;99.90;;;;;;4974770;28;20662;-67
2022/03/31 03:32:36;;;;;;;8.57;6.17;;;7.30;99.90;;;;;;4957737;28;20191;-66
2022/03/31 03:35:04;;;;;;;11.87;6.43;;;7.20;99.90;;;;;;4985976;28;20180;-66
2022/03/31 03:37:30;;;;;;;9.40;6.20;;;7.10;99.90;;;;;;4975195;28;20247;-66
2022/03/31 03:39:55;;;;;;;10.40;5.93;;;7.10;99.90;;;;;;4973931;28;20638;-67
2022/03/31 03:42:21;;;;;;;9.33;6.10;;;6.70;99.90;;;;;;4975023;28;20196;-66
2022/03/31 03:44:47;;;;;;;12.80;7.80;;;6.80;99.90;;;;;;4973640;28;20223;-67
2022/03/31 03:47:12;;;;;;;10.47;7.47;;;6.80;99.90;;;;;;4973610;28;20196;-67
2022/03/31 03:49:38;;;;;;;14.57;8.60;;;6.70;99.90;;;;;;4974809;28;20654;-66
2022/03/31 03:52:04;;;;;;;14.43;8.87;;;6.60;99.90;;;;;;4957369;28;20554;-67
2022/03/31 03:54:30;;;;;;;10.77;7.63;;;6.50;99.90;;;;;;4981156;28;20196;-67
2022/03/31 03:56:56;;;;;;;10.70;8.27;;;6.40;99.90;;;;;;4973060;28;20664;-67
2022/03/31 03:59:22;;;;;;;12.03;9.07;;;6.20;99.90;;;;;;4973836;28;20189;-67
2022/03/31 04:01:48;;;;;;;11.70;7.20;;;6.30;99.90;;;;;;4988332;28;20224;-66
2022/03/31 04:04:13;;;;;;;9.47;6.70;;;6.20;99.90;;;;;;4977450;28;20188;-67
2022/03/31 04:06:39;;;;;;;8.57;6.63;;;5.90;99.90;;;;;;4974745;28;20204;-68
2022/03/31 04:09:05;;;;;;;8.33;6.47;;;5.60;99.90;;;;;;4974427;28;20188;-67
2022/03/31 04:11:30;;;;;;;7.00;5.80;;;5.50;99.90;;;;;;4962419;28;20196;-67
2022/03/31 04:13:56;;;;;;;9.50;4.73;;;5.30;99.90;;;;;;4975251;28;20643;-65
2022/03/31 04:16:22;;;;;;;9.87;5.60;;;5.10;99.90;;;;;;4992581;28;20219;-66
2022/03/31 04:18:47;;;;;;;5.83;5.20;;;4.80;99.90;;;;;;4991394;28;20200;-66
2022/03/31 04:21:14;;;;;;;4.50;4.07;;;4.70;99.90;;;;;;4979520;28;20292;-66
2022/03/31 04:23:40;;;;;;;6.33;5.73;;;4.60;99.90;;;;;;4983103;28;20251;-68
2022/03/31 04:26:06;;;;;;;6.00;4.80;;;4.60;99.90;;;;;;4981389;28;20646;-68
2022/03/31 04:28:32;;;;;;;4.83;4.33;;;4.50;99.90;;;;;;4973324;28;20196;-68
2022/03/31 04:30:58;;;;;;;4.73;4.27;;;4.60;99.90;;;;;;4973198;28;20288;-68
2022/03/31 04:33:26;;;;;;;6.63;4.20;;;4.60;99.90;;;;;;4973238;28;20272;-68
2022/03/31 04:35:52;;;;;;;4.07;3.10;;;4.50;99.90;;;;;;4973268;28;20239;-66
2022/03/31 04:38:18;;;;;;;4.33;3.20;;;4.50;99.90;;;;;;4974833;28;20188;-67
2022/03/31 04:40:43;;;;;;;4.50;3.50;;;4.50;99.90;;;;;;4958360;28;20660;-67
2022/03/31 04:43:09;;;;;;;4.93;3.53;;;4.50;99.90;;;;;;4961939;28;20222;-68
2022/03/31 04:45:35;;;;;;;3.50;2.80;;;4.20;99.90;;;;;;4987992;28;20200;-67
2022/03/31 04:48:00;;;;;;;6.03;3.10;;;3.90;99.90;;;;;;4972697;28;20232;-68
2022/03/31 04:50:26;;;;;;;3.30;3.00;;;4.00;99.90;;;;;;4974107;28;20275;-66
2022/03/31 04:52:52;;;;;;;2.50;2.30;;;4.00;99.90;;;;;;4973832;28;20569;-68
2022/03/31 04:55:17;;;;;;;3.70;3.33;;;3.70;99.90;;;;;;4972639;28;20189;-68
2022/03/31 04:57:43;;;;;;;2.77;2.57;;;3.70;99.90;;;;;;4957259;28;20197;-69
2022/03/31 05:00:09;;;;;;;3.20;2.90;;;3.70;99.90;;;;;;4972533;28;20671;-69
2022/03/31 05:02:35;;;;;;;3.70;3.37;;;3.70;99.90;;;;;;4974199;28;20200;-68
2022/03/31 05:05:01;;;;;;;3.57;3.23;;;3.60;99.90;;;;;;4975500;28;20180;-69
2022/03/31 05:07:27;;;;;;;5.33;3.07;;;3.60;99.90;;;;;;4972930;28;20185;-68
2022/03/31 05:09:53;;;;;;;3.37;3.07;;;3.60;99.90;;;;;;4974949;28;20682;-68
2022/03/31 05:12:19;;;;;;;3.70;3.23;;;3.50;99.90;;;;;;4963227;28;20547;-69
2022/03/31 05:14:44;;;;;;;3.23;2.30;;;3.50;99.90;;;;;;4976599;28;20196;-68
2022/03/31 05:17:10;;;;;;;4.37;3.53;;;3.60;99.90;;;;;;4977650;28;20189;-69
2022/03/31 05:19:37;;;;;;;4.97;3.57;;;3.50;99.90;;;;;;4959839;28;20196;-68
2022/03/31 05:22:03;;;;;;;3.13;2.83;;;3.40;99.90;;;;;;4977383;28;20323;-69
2022/03/31 05:24:29;;;;;;;3.57;3.27;;;3.40;99.90;;;;;;4975771;28;20276;-68
2022/03/31 05:26:55;;;;;;;4.37;3.97;;;3.40;99.90;;;;;;4976084;28;20575;-69
2022/03/31 05:29:21;;;;;;;5.60;4.17;;;3.40;99.90;;;;;;4976215;28;20189;-68
2022/03/31 05:31:48;;;;;;;5.50;4.20;;;3.40;99.90;;;;;;4977667;28;20613;-68
2022/03/31 05:34:14;;;;;;;3.93;3.30;;;3.50;99.90;;;;;;4959731;28;20189;-68
2022/03/31 05:36:40;;;;;;;4.53;3.80;;;3.40;99.90;;;;;;4977144;28;20684;-68
2022/03/31 05:39:06;;;;;;;4.10;3.70;;;3.40;99.90;;;;;;4975768;28;20263;-69
2022/03/31 05:41:32;;;;;;;5.10;4.27;;;3.50;99.90;;;;;;4977449;28;20319;-68
2022/03/31 05:43:57;;;;;;;4.63;3.57;;;3.40;99.90;;;;;;4987236;28;20276;-68
2022/03/31 05:46:24;;;;;;;4.20;3.80;;;3.50;99.90;;;;;;4959730;28;20193;-68
2022/03/31 05:48:51;;;;;;;4.90;4.40;;;3.60;99.90;;;;;;4975742;28;20272;-68
2022/03/31 05:51:17;;;;;;;5.03;3.93;;;3.60;99.90;;;;;;4975834;28;20650;-68
2022/03/31 05:53:43;;;;;;;5.63;4.87;;;3.60;99.90;;;;;;4959680;28;20196;-68
2022/03/31 05:56:09;;;;;;;6.63;4.57;;;3.60;99.90;;;;;;4977246;28;20639;-68
2022/03/31 05:58:35;;;;;;;5.53;4.60;;;3.60;99.90;;;;;;4975555;28;20196;-68
2022/03/31 06:01:01;;;;;;;5.37;3.67;;;3.50;99.90;;;;;;4980406;28;20212;-67
2022/03/31 06:03:26;;;;;;;6.60;4.53;;;3.60;99.90;;;;;;4992467;28;20187;-67
2022/03/31 06:05:52;;;;;;;5.87;4.83;;;3.70;99.90;;;;;;4976574;28;20189;-67
2022/03/31 06:08:18;;;;;;;6.00;4.67;;;3.60;99.90;;;;;;4975207;28;20211;-68
2022/03/31 06:10:45;;;;;;;8.13;4.57;;;3.80;99.90;;;;;;4976840;28;20294;-68
2022/03/31 06:13:12;;;;;;;6.87;5.13;;;3.80;99.90;;;;;;4976306;28;20533;-68
2022/03/31 06:15:37;;;;;;;7.07;5.63;;;3.80;99.90;;;;;;4976920;28;20192;-68
2022/03/31 06:18:04;;;;;;;8.23;5.00;;;3.90;99.90;;;;;;4958625;28;20261;-69
2022/03/31 06:20:31;;;;;;;6.30;5.07;;;4.00;99.90;;;;;;4979644;28;20223;-68
2022/03/31 06:22:57;;;;;;;6.63;4.80;;;4.10;99.90;;;;;;4976382;28;20212;-68
2022/03/31 06:25:23;;;;;;;8.37;6.20;;;3.90;99.90;;;;;;4973755;28;20277;-68
2022/03/31 06:27:49;;;;;;;5.90;5.30;;;3.90;99.90;;;;;;4975351;28;20192;-68
2022/03/31 06:30:15;;;;;;;7.50;4.97;;;3.90;99.90;;;;;;4974893;28;20224;-68
2022/03/31 06:32:41;;;;;;;6.10;5.47;;;4.00;99.90;;;;;;4975322;28;20621;-68
2022/03/31 06:35:11;;;;;;;6.43;5.10;;;4.10;99.90;;;;;;4966477;28;20192;-68
2022/03/31 06:37:39;;;;;;;6.20;5.60;;;4.20;99.90;;;;;;4976466;28;20196;-68
2022/03/31 06:40:05;;;;;;;6.70;5.07;;;4.30;99.90;;;;;;4976023;28;20220;-68
2022/03/31 06:42:31;;;;;;;6.73;4.77;;;4.10;99.90;;;;;;4981966;28;20275;-68
2022/03/31 06:44:57;;;;;;;8.20;5.70;;;4.00;99.90;;;;;;4986215;28;20272;-68
2022/03/31 06:47:23;;;;;;;8.10;5.20;;;4.20;99.90;;;;;;4942492;28;20222;-68
2022/03/31 06:49:48;;;;;;;7.17;5.20;;;4.30;99.90;;;;;;4986085;28;20188;-68
2022/03/31 06:52:14;;;;;;;8.07;5.60;;;4.10;99.90;;;;;;4958349;28;20283;-69
2022/03/31 06:54:40;;;;;;;7.43;4.70;;;4.00;99.90;;;;;;4974615;28;20192;-69
2022/03/31 06:57:05;;;;;;;7.07;5.60;;;3.90;99.90;;;;;;4989452;28;20230;-68
2022/03/31 06:59:31;;;;;;;6.90;5.70;;;4.20;99.90;;;;;;4981478;28;20196;-68
2022/03/31 07:01:57;;;;;;;7.90;5.23;;;4.10;99.90;;;;;;4977640;28;20216;-68
2022/03/31 07:04:23;;;;;;;8.23;5.97;;;4.10;99.90;;;;;;4968254;28;20223;-68
2022/03/31 07:06:49;;;;;;;8.27;5.80;;;4.10;99.90;;;;;;4976829;28;20188;-68
2022/03/31 07:09:15;;;;;;;8.60;6.80;;;4.10;99.90;;;;;;4977633;28;20268;-68
2022/03/31 07:11:41;;;;;;;9.30;6.30;;;4.00;99.90;;;;;;4959618;28;20192;-73
2022/03/31 07:14:07;;;;;;;9.00;5.50;;;3.90;99.90;;;;;;4973934;28;20195;-73
2022/03/31 07:16:33;;;;;;;9.07;7.00;;;3.90;99.90;;;;;;4990413;28;20606;-73
2022/03/31 07:19:01;;;;;;;10.07;7.10;;;4.00;99.90;;;;;;4979705;28;20192;-74
2022/03/31 07:21:27;;;;;;;7.03;5.77;;;4.10;99.90;;;;;;4962808;28;20224;-74
2022/03/31 07:23:53;;;;;;;10.00;5.87;;;4.20;99.90;;;;;;4987870;28;20207;-72
2022/03/31 07:26:19;;;;;;;6.67;5.10;;;4.20;99.90;;;;;;4958519;28;20188;-76
2022/03/31 07:28:45;;;;;;;9.27;6.27;;;4.00;99.90;;;;;;4973221;28;20192;-78
2022/03/31 07:31:11;;;;;;;9.60;6.50;;;4.00;99.90;;;;;;4976549;28;20654;-77
2022/03/31 07:33:36;;;;;;;5.60;5.00;;;4.10;99.90;;;;;;4978125;28;20195;-76
2022/03/31 07:36:03;;;;;;;7.43;5.63;;;4.10;99.90;;;;;;4955596;28;20204;-75
2022/03/31 07:38:28;;;;;;;8.37;6.07;;;4.10;99.90;;;;;;4974510;28;20284;-75
2022/03/31 07:40:55;;;;;;;9.77;6.20;;;4.20;99.90;;;;;;4963498;28;20315;-74
2022/03/31 07:43:21;;;;;;;7.87;4.67;;;4.20;99.90;;;;;;4973554;28;20258;-77
2022/03/31 07:45:47;;;;;;;9.70;6.50;;;4.10;99.90;;;;;;4977015;28;20192;-75
2022/03/31 07:48:15;;;;;;;9.63;5.60;;;4.20;99.90;;;;;;4982451;28;20192;-75
2022/03/31 07:50:42;;;;;;;6.40;5.60;;;4.30;99.90;;;;;;4964834;28;20220;-72
2022/03/31 07:53:09;;;;;;;10.40;6.97;;;4.60;99.90;;;;;;4974276;28;20189;-75
2022/03/31 07:55:34;;;;;;;8.67;6.07;;;4.60;99.90;;;;;;4974901;28;20189;-77
2022/03/31 07:58:00;;;;;;;8.93;6.07;;;4.60;99.90;;;;;;4972976;28;20673;-75
2022/03/31 08:00:29;;;;;;;13.80;6.47;;;4.60;99.90;;;;;;4957725;28;20213;-75
2022/03/31 08:02:57;;;;;;;9.67;6.80;;;4.60;99.90;;;;;;4973931;28;20267;-78
2022/03/31 08:05:25;;;;;;;9.60;6.53;;;4.70;99.90;;;;;;4973166;28;20185;-68
2022/03/31 08:07:51;;;;;;;10.33;7.10;;;4.70;99.90;;;;;;4977661;28;20195;-70
2022/03/31 08:10:18;;;;;;;12.27;6.37;;;4.70;99.90;;;;;;4974211;28;20660;-72
2022/03/31 08:12:45;;;;;;;9.23;6.07;;;4.60;99.90;;;;;;4980550;28;20184;-70
2022/03/31 08:15:14;;;;;;;8.70;4.83;;;4.60;99.90;;;;;;4974871;28;20915;-72
2022/03/31 08:17:39;;;;;;;8.20;5.90;;;4.60;99.90;;;;;;4963269;28;20185;-67
2022/03/31 08:20:10;;;;;;;7.07;5.63;;;4.70;99.90;;;;;;4979211;28;20289;-68
2022/03/31 08:22:36;;;;;;;7.17;5.47;;;4.80;99.90;;;;;;4976951;28;20196;-70
2022/03/31 08:25:03;;;;;;;10.77;6.43;;;5.10;99.90;;;;;;4980936;28;20296;-71
2022/03/31 08:27:30;;;;;;;6.33;5.60;;;5.20;99.90;;;;;;4973614;28;20195;-70
2022/03/31 08:29:55;;;;;;;6.27;5.33;;;4.90;99.90;;;;;;4974073;28;20277;-70
2022/03/31 08:32:21;;;;;;;6.83;5.87;;;4.70;99.90;;;;;;4973049;28;20188;-70
2022/03/31 08:34:47;;;;;;;7.37;5.60;;;5.00;99.90;;;;;;4982413;28;20222;-70
2022/03/31 08:37:14;;;;;;;7.87;5.40;;;5.00;99.90;;;;;;4986076;28;20702;-71
2022/03/31 08:39:40;;;;;;;6.20;4.50;;;5.00;99.90;;;;;;4981138;28;20216;-70
2022/03/31 08:42:10;;;;;;;10.10;5.27;;;5.00;99.90;;;;;;4972530;28;20802;-73
2022/03/31 08:44:37;;;;;;;8.30;5.17;;;5.00;99.90;;;;;;4978092;28;20716;-70
2022/03/31 08:47:02;;;;;;;7.63;5.23;;;5.10;99.90;;;;;;4979484;28;20279;-70
2022/03/31 08:49:31;;;;;;;9.00;5.07;;;5.30;99.90;;;;;;4974600;28;20259;-68
2022/03/31 08:51:57;;;;;;;7.50;4.80;;;5.50;99.90;;;;;;4984206;28;20606;-71
2022/03/31 08:54:22;;;;;;;7.90;4.97;;;5.60;99.90;;;;;;4960342;28;20278;-72
2022/03/31 08:56:48;;;;;;;6.33;5.00;;;5.80;99.90;;;;;;4975794;28;20185;-69
2022/03/31 08:59:14;;;;;;;6.27;4.60;;;5.70;99.90;;;;;;4978343;28;20193;-70
2022/03/31 09:01:40;;;;;;;10.33;4.67;;;5.80;99.90;;;;;;4960411;28;20215;-69
2022/03/31 09:04:22;;;;;;;6.13;4.77;;;5.80;99.90;;;;;;4976175;28;20180;-68
2022/03/31 09:06:49;;;;;;;4.23;3.77;;;5.70;99.90;;;;;;4980165;28;20189;-69
2022/03/31 09:09:16;;;;;;;4.57;4.03;;;5.80;99.90;;;;;;4976013;28;20185;-69
2022/03/31 09:11:46;;;;;;;6.40;4.53;;;6.00;99.90;;;;;;4980676;28;20204;-68
2022/03/31 09:14:12;;;;;;;8.93;4.47;;;6.10;99.90;;;;;;4978873;28;20596;-68
2022/03/31 09:16:39;;;;;;;5.30;4.20;;;5.70;99.90;;;;;;4966149;28;20188;-69
2022/03/31 09:19:10;;;;;;;8.33;4.57;;;5.60;99.90;;;;;;4982536;28;20180;-69
2022/03/31 09:21:58;;;;;;;4.03;3.63;;;5.40;99.90;;;;;;4982978;28;20232;-68
2022/03/31 09:24:27;;;;;;;7.13;4.43;;;5.30;99.90;;;;;;4977656;28;20177;-74
2022/03/31 09:26:53;;;;;;;8.17;5.00;;;5.40;99.90;;;;;;4960870;28;20192;-71
2022/03/31 09:29:23;;;;;;;6.33;4.80;;;5.60;99.90;;;;;;4976095;28;20184;-73
2022/03/31 09:31:51;;;;;;;7.37;5.13;;;5.60;99.90;;;;;;4978149;28;20196;-72
2022/03/31 09:34:18;;;;;;;5.90;4.43;;;5.50;99.90;;;;;;4960057;28;20568;-72
2022/03/31 09:36:49;;;;;;;5.87;4.57;;;5.60;99.90;;;;;;4977108;28;20790;-73
2022/03/31 09:39:17;;;;;;;9.27;5.07;;;5.70;99.90;;;;;;4976918;28;20665;-74
2022/03/31 09:41:50;;;;;;;4.57;4.17;;;5.70;99.90;;;;;;4976770;28;20228;-73
2022/03/31 09:44:19;;;;;;;7.70;5.40;;;5.70;99.90;;;;;;4971960;28;20180;-70
2022/03/31 09:46:46;;;;;;;6.87;5.27;;;5.70;99.90;;;;;;4988432;28;20305;-72
2022/03/31 09:49:24;;;;;;;7.30;4.93;;;5.50;99.90;;;;;;4977053;28;20188;-75
2022/03/31 09:51:56;;;;;;;5.03;4.10;;;5.60;99.90;;;;;;4982302;28;20285;-72
2022/03/31 09:54:25;;;;;;;4.83;3.93;;;5.90;99.90;;;;;;4987339;28;20630;-72
2022/03/31 09:56:51;;;;;;;6.97;5.17;;;6.20;99.90;;;;;;4978249;28;20185;-71
2022/03/31 09:59:17;;;;;;;7.47;4.87;;;6.30;99.90;;;;;;4976758;28;20184;-72
2022/03/31 10:01:44;;;;;;;5.43;4.33;;;6.50;99.90;;;;;;4978098;28;20223;-70
2022/03/31 10:04:11;;;;;;;5.07;4.30;;;6.50;99.90;;;;;;4979383;28;20696;-73
2022/03/31 10:06:41;;;;;;;4.60;4.20;;;6.50;99.90;;;;;;4982256;28;20189;-69
2022/03/31 10:09:09;;;;;;;4.87;3.93;;;6.60;99.90;;;;;;4975023;28;20192;-76
2022/03/31 10:11:42;;;;;;;6.97;4.83;;;6.40;99.90;;;;;;4981454;28;20187;-72
2022/03/31 10:14:43;;;;;;;5.73;4.43;;;6.50;99.90;;;;;;4985394;28;20193;-71
2022/03/31 10:17:09;;;;;;;5.17;4.47;;;6.50;99.90;;;;;;4976808;28;20177;-74
2022/03/31 10:19:36;;;;;;;6.33;4.70;;;7.10;99.90;;;;;;4977290;28;20275;-73
2022/03/31 10:24:41;;;;;;;5.40;3.90;;;7.10;99.90;;;;;;4981819;28;20220;-74
2022/03/31 10:24:58;;;;;;;5.37;4.43;;;7.10;99.90;;;;;;4980611;28;20764;-74
2022/03/31 10:27:29;;;;;;;6.23;3.97;;;7.30;99.90;;;;;;4975452;28;20215;-74
2022/03/31 10:30:07;;;;;;;4.90;4.03;;;7.50;99.90;;;;;;4981824;28;20179;-74
2022/03/31 10:32:33;;;;;;;4.70;3.80;;;7.40;99.90;;;;;;4969540;28;20242;-73
2022/03/31 10:34:59;;;;;;;5.67;4.43;;;7.50;99.90;;;;;;4987105;28;20219;-72
2022/03/31 10:37:31;;;;;;;4.37;3.57;;;7.60;99.90;;;;;;4980222;28;20196;-71
2022/03/31 10:39:57;;;;;;;10.57;4.50;;;7.70;99.90;;;;;;4994427;28;20558;-72
2022/03/31 10:42:24;;;;;;;4.43;3.63;;;7.60;99.90;;;;;;4973755;28;20222;-73
2022/03/31 10:45:04;;;;;;;4.27;3.87;;;7.70;99.90;;;;;;4971244;28;20646;-73
2022/03/31 10:47:34;;;;;;;4.07;3.73;;;8.00;99.90;;;;;;4988476;28;20260;-73
2022/03/31 10:50:00;;;;;;;5.13;3.70;;;8.10;99.90;;;;;;4974768;28;20192;-72
2022/03/31 10:52:27;;;;;;;3.67;3.27;;;8.20;99.90;;;;;;4974504;28;20199;-73
2022/03/31 10:55:08;;;;;;;6.07;3.17;;;7.90;99.90;;;;;;4959073;28;20663;-73
2022/03/31 10:57:40;;;;;;;3.37;3.07;;;8.00;99.90;;;;;;4975732;28;20188;-73
2022/03/31 11:00:08;;;;;;;2.97;2.70;;;7.90;99.90;;;;;;4975939;28;20239;-73
2022/03/31 11:02:40;;;;;;;3.13;2.93;;;7.90;99.90;;;;;;4974654;28;20192;-73
2022/03/31 11:05:08;;;;;;;3.63;3.33;;;7.80;99.90;;;;;;4975976;28;20184;-73
2022/03/31 11:07:34;;;;;;;4.50;3.50;;;7.90;99.90;;;;;;4970626;28;20185;-76
2022/03/31 11:10:11;;;;;;;4.37;3.60;;;7.90;99.90;;;;;;4985253;28;20188;-72
2022/03/31 11:12:37;;;;;;;3.83;3.43;;;8.00;99.90;;;;;;4983599;28;20199;-72
2022/03/31 11:15:16;;;;;;;3.80;3.40;;;8.10;99.90;;;;;;4987359;28;20180;-72
2022/03/31 11:17:43;;;;;;;5.53;4.07;;;8.00;99.90;;;;;;4988593;28;20201;-72
2022/03/31 11:20:21;;;;;;;5.57;4.37;;;7.70;99.90;;;;;;4982475;28;20197;-72
2022/03/31 11:22:55;;;;;;;4.10;3.70;;;7.60;99.90;;;;;;4980506;28;20188;-81
2022/03/31 11:25:23;;;;;;;5.90;5.13;;;7.70;99.90;;;;;;4992501;28;20190;-72
2022/03/31 11:27:50;;;;;;;6.60;5.87;;;7.80;99.90;;;;;;4977936;28;20219;-71
2022/03/31 11:30:20;;;;;;;11.47;8.33;;;7.80;99.90;;;;;;4988551;28;20661;-73
2022/03/31 11:32:48;;;;;;;9.50;6.50;;;7.80;99.90;;;;;;4980686;28;20180;-73
2022/03/31 11:35:19;;;;;;;9.10;6.67;;;8.00;99.90;;;;;;4975052;28;20218;-73
2022/03/31 11:37:50;;;;;;;8.53;7.03;;;8.30;99.90;;;;;;4973616;28;20200;-72
2022/03/31 11:40:23;;;;;;;10.73;7.13;;;8.50;99.90;;;;;;4978379;28;20184;-74
2022/03/31 11:42:50;;;;;;;10.70;7.17;;;8.50;99.90;;;;;;4991727;28;20649;-72
2022/03/31 11:45:24;;;;;;;9.50;7.13;;;8.40;99.90;;;;;;4982427;28;20195;-69
2022/03/31 11:48:17;;;;;;;13.97;6.90;;;8.40;99.90;;;;;;4973403;28;20283;-73
2022/03/31 11:50:56;;;;;;;9.47;6.43;;;8.60;99.90;;;;;;4977735;28;20204;-70
2022/03/31 11:53:34;;;;;;;13.50;7.30;;;8.60;99.90;;;;;;4980653;28;20215;-68
2022/03/31 11:56:06;;;;;;;8.37;6.53;;;8.60;99.90;;;;;;4974451;28;20654;-72
2022/03/31 11:58:48;;;;;;;7.87;6.50;;;8.40;99.90;;;;;;4974721;28;20212;-72
2022/03/31 12:01:15;;;;;;;12.17;6.90;;;8.50;99.90;;;;;;4981544;28;20280;-69
2022/03/31 12:03:41;;;;;;;8.37;6.53;;;8.30;99.90;;;;;;4984487;28;20283;-71
2022/03/31 12:06:07;;;;;;;7.47;6.67;;;8.40;99.90;;;;;;4981155;28;20646;-74
2022/03/31 12:08:34;;;;;;;13.87;6.20;;;8.50;99.90;;;;;;4975455;28;20200;-70
2022/03/31 12:11:01;;;;;;;6.63;5.87;;;8.40;99.90;;;;;;4984862;28;20697;-71
2022/03/31 12:13:28;;;;;;;7.20;5.67;;;8.60;99.90;;;;;;4981941;28;20193;-71
2022/03/31 12:16:09;;;;;;;9.33;7.07;;;8.80;99.90;;;;;;4974983;28;20193;-71
2022/03/31 12:18:37;;;;;;;9.40;7.00;;;8.90;99.90;;;;;;4992943;28;20176;-73
2022/03/31 12:21:04;;;;;;;7.03;6.00;;;9.10;99.90;;;;;;4957184;28;20231;-73
2022/03/31 12:23:31;;;;;;;6.03;5.43;;;9.20;99.90;;;;;;4974009;28;20189;-73
2022/03/31 12:25:56;;;;;;;6.80;5.87;;;9.50;99.90;;;;;;4972823;28;20241;-75
2022/03/31 12:28:23;;;;;;;5.63;4.93;;;9.60;99.90;;;;;;4975725;28;20188;-74
2022/03/31 12:30:52;;;;;;;6.37;5.27;;;9.70;99.90;;;;;;4974054;28;20203;-74
2022/03/31 12:33:28;;;;;;;5.13;4.70;;;9.60;99.90;;;;;;4972249;28;20192;-73
2022/03/31 12:36:02;;;;;;;5.27;4.77;;;9.60;99.90;;;;;;4977618;28;20648;-74
2022/03/31 12:38:34;;;;;;;7.40;5.83;;;9.70;99.90;;;;;;4982575;28;20724;-75
2022/03/31 12:41:00;;;;;;;7.00;6.03;;;9.90;99.90;;;;;;4971475;28;20231;-77
2022/03/31 12:43:26;;;;;;;9.10;5.97;;;9.80;99.90;;;;;;4971857;28;20192;-77
2022/03/31 12:45:52;;;;;;;7.23;6.50;;;10.10;99.90;;;;;;4971487;28;20181;-77
2022/03/31 12:48:19;;;;;;;11.33;4.23;;;10.20;99.90;;;;;;4971470;28;20196;-76
2022/03/31 12:50:45;;;;;;;3.67;3.37;;;10.30;99.90;;;;;;4972872;28;20188;-77
2022/03/31 12:53:11;;;;;;;3.50;3.20;;;10.20;99.90;;;;;;4973786;28;20547;-77
2022/03/31 12:55:41;;;;;;;3.37;3.17;;;9.90;99.90;;;;;;4973652;28;20181;-76
2022/03/31 12:58:07;;;;;;;3.20;2.90;;;9.80;99.90;;;;;;4975442;28;20227;-75